Wetterdaten der Wetterstation 72336 Balingen

Letzte Wetterlage 21.12.2014 19:19
Wetterdiagramm
Tabellarische Darstellung
Datum Temperatur Windchill Feuchte Luftdruck Windrichtung Windstärke Niederschlag
21.12.2014 19:19 4,2 °C 4,2 °C 68 % -- 0.0 0,00 mm
21.12.2014 19:04 4,2 °C 4,2 °C 68 % -- 0.0 0,00 mm
21.12.2014 18:49 4,2 °C 4,2 °C 68 % -- 0.1 0,00 mm
21.12.2014 18:34 4,1 °C 4,1 °C 68 % -- 0.1 0,00 mm
21.12.2014 18:19 4,1 °C 4,1 °C 68 % -- 0.1 0,00 mm
21.12.2014 18:04 4,0 °C 4,0 °C 68 % -- 0.0 0,00 mm
21.12.2014 17:49 4,0 °C 4,0 °C 68 % -- 0.0 0,00 mm
21.12.2014 17:34 4,0 °C 4,0 °C 68 % -- 0.0 0,00 mm
21.12.2014 17:19 4,1 °C 4,1 °C 67 % -- 0.0 0,00 mm
21.12.2014 17:04 4,0 °C 4,0 °C 67 % -- 0.0 0,00 mm
21.12.2014 16:49 4,2 °C 4,2 °C 67 % -- 0.0 0,00 mm
21.12.2014 16:34 4,5 °C 4,5 °C 67 % -- 0.0 0,00 mm
21.12.2014 16:19 4,6 °C 4,6 °C 66 % -- 0.0 0,00 mm
21.12.2014 16:04 4,7 °C 4,7 °C 65 % -- 0.0 0,00 mm
21.12.2014 15:49 4,8 °C 4,8 °C 64 % -- 0.3 0,00 mm
21.12.2014 15:34 5,2 °C 5,2 °C 64 % -- 0.3 0,00 mm
21.12.2014 15:19 5,3 °C 5,3 °C 64 % -- 0.0 0,00 mm
21.12.2014 15:04 5,2 °C 5,2 °C 65 % -- 0.0 0,00 mm
21.12.2014 14:49 5,3 °C 5,3 °C 64 % -- 0.1 0,00 mm
21.12.2014 14:34 5,6 °C 5,6 °C 63 % -- 0.1 0,00 mm
21.12.2014 14:19 6,0 °C 6,0 °C 63 % -- 0.0 0,00 mm
21.12.2014 14:04 5,9 °C 5,9 °C 63 % -- 0.1 0,00 mm
21.12.2014 13:49 5,9 °C 5,9 °C 64 % -- 0.1 0,00 mm
21.12.2014 13:34 5,9 °C 5,9 °C 64 % -- 0.0 0,00 mm
21.12.2014 13:19 5,9 °C 5,9 °C 64 % -- 0.0 0,00 mm
Empfehlen Sie wetter.com
| Mehr
Neue Wetterwarnung

Neue Niederschlagsmeldung
Neue Meldung
Regen Liveticker
    sehr starker Regen/Gewitter
    starker Regen/Gewitter
    mäßiger bis starker Regen
    mäßiger Regen
    leichter bis mäßiger Regen
    kein Regen